Trang, Thailand

11:46 AM ICT on March 07, 2015 (GMT +0700)
Trang | Change Station
CLOSE
Current Station
Airport
Location: Trang,
Elevation: 52 ft
Nearby Weather Stations

Elev 52 ft 7.51 °N, 99.62 °E | Updated 46 minutes ago

Partly Cloudy
Partly Cloudy
90 °F
Feels Like 98 °F
N
6
Wind Variable Wind from South

Today
High -- | Low -- °F
--% Chance of Precip.
Yesterday
High -- | Low -- °F
Precip. -- in
6:32 AM 6:33 PM
Full, 98% visible
Pressure 29.86 in
Visibility 6.2 miles
Clouds Few 2000 ft
Heat Index 98 °F
Dew Point 73 °F
Humidity 59%
Rainfall 0.00 in
Snow Depth Not available.
UV 13 out of 12
Pollen Not available.
Air Quality Not available.
Flu Activity Not available.
METAR VTST 070400Z 18005KT 9999 FEW020 32/23 Q1011 RWY08 INFO E

More Conditions Fewer Conditions

Pressure 29.86 in
Visibility 6.2 miles
Clouds Few 2000 ft
Heat Index 98 °F
Dew Point 73 °F
Humidity 59%
Rainfall 0.00 in
Snow Depth Not available.
UV 13 out of 12
Pollen Not available.
Air Quality Not available.
Flu Activity Not available.
METAR VTST 070400Z 18005KT 9999 FEW020 32/23 Q1011 RWY08 INFO E

More Conditions Fewer Conditions

10-Day Weather Forecast

Almanac

Astronomy

Mar. 07, 2015 Rise Set
Actual Time
Civil Twilight
Nautical Twilight
Astronomical Twilight
Moon
Length of Visible Light
Length of Day
Tomorrow will be .
, % of the Moon is Illuminated

Today's Extremes

Country Highs Country Lows

Community

WunderPhotos

Upload Photos

1,803,548 photos uploaded!

WunderBlogs® & News

Nearby

Air Quality

  Air Quality AQ Index Pollutant
Not available.

Snow Depth

Station Depth Elevation

Earthquake Activity

City Distance Mag. Time & Date
Minimum magnitude displayed is 2.5.

Coastal Water Temperatures

Place Temperature

Nearby Weather Stations